createdAt,value
2022-08-29T00:00:24.644Z,99305.67
2022-08-29T00:03:08.868Z,99307.02
2022-08-29T00:05:42.457Z,99309.82
2022-08-29T00:08:13.567Z,99309.17
2022-08-29T00:10:43.605Z,99307.70
2022-08-29T00:13:13.397Z,99310.98
2022-08-29T00:15:45.434Z,99307.83
2022-08-29T00:18:18.619Z,99313.11
2022-08-29T00:20:47.752Z,99311.24
2022-08-29T00:23:17.029Z,99312.59
2022-08-29T00:25:45.872Z,99313.45
2022-08-29T00:28:14.754Z,99312.98
2022-08-29T00:30:45.785Z,99316.38
2022-08-29T00:33:15.343Z,99316.46
2022-08-29T00:35:45.177Z,99317.64
2022-08-29T00:38:16.620Z,99317.77
2022-08-29T00:40:51.795Z,99318.22
2022-08-29T00:43:25.449Z,99323.65
2022-08-29T00:46:30.673Z,99323.93
2022-08-29T00:49:05.713Z,99316.52
2022-08-29T00:51:33.737Z,99324.87
2022-08-29T00:54:08.579Z,99324.47
2022-08-29T00:56:39.418Z,99322.65
2022-08-29T00:59:40.102Z,99319.31
2022-08-29T01:02:11.255Z,99318.27
2022-08-29T01:04:42.319Z,99317.91
2022-08-29T01:07:11.215Z,99315.11
2022-08-29T01:09:42.198Z,99312.92
2022-08-29T01:12:16.988Z,99314.85
2022-08-29T01:15:05.651Z,99310.74
2022-08-29T01:17:45.259Z,99313.54
2022-08-29T01:20:23.306Z,99314.36
2022-08-29T01:23:17.279Z,99312.59
2022-08-29T01:25:49.073Z,99312.90
2022-08-29T01:28:25.685Z,99311.18
2022-08-29T01:31:00.922Z,99305.88
2022-08-29T01:33:47.993Z,99307.34
2022-08-29T01:36:20.527Z,99305.34
2022-08-29T01:38:50.053Z,99305.40
2022-08-29T01:41:20.875Z,99302.45
2022-08-29T01:43:52.355Z,99306.94
2022-08-29T01:46:43.041Z,99304.71
2022-08-29T01:49:15.673Z,99309.70
2022-08-29T01:51:45.929Z,99314.67
2022-08-29T01:54:18.687Z,99318.40
2022-08-29T01:56:52.322Z,99320.66
2022-08-29T01:59:25.567Z,99318.03
2022-08-29T02:02:03.337Z,99318.89
2022-08-29T02:04:32.919Z,99316.78
2022-08-29T02:07:02.811Z,99317.64
2022-08-29T02:09:30.678Z,99314.27
2022-08-29T02:12:01.773Z,99309.10
2022-08-29T02:14:30.488Z,99307.90
2022-08-29T02:16:58.318Z,99309.51
2022-08-29T02:19:26.240Z,99308.57
2022-08-29T02:22:02.906Z,99310.82
2022-08-29T02:24:35.024Z,99312.42
2022-08-29T02:27:03.438Z,99312.67
2022-08-29T02:29:37.906Z,99315.29
2022-08-29T02:32:09.335Z,99310.96
2022-08-29T02:34:38.359Z,99311.08
2022-08-29T02:37:07.845Z,99313.30
2022-08-29T02:39:36.203Z,99320.15
2022-08-29T02:42:04.513Z,99321.11
2022-08-29T02:44:32.448Z,99322.27
2022-08-29T02:47:00.409Z,99317.92
2022-08-29T02:49:31.997Z,99311.52
2022-08-29T02:52:00.441Z,99309.84
2022-08-29T02:54:29.279Z,99310.20
2022-08-29T02:56:57.179Z,99315.31
2022-08-29T02:59:24.940Z,99316.41
2022-08-29T03:01:53.803Z,99323.27
2022-08-29T03:04:22.710Z,99321.80
2022-08-29T03:06:50.552Z,99316.55
2022-08-29T03:09:21.287Z,99316.38
2022-08-29T03:11:49.104Z,99312.80
2022-08-29T03:14:17.785Z,99310.05
2022-08-29T03:16:46.489Z,99312.61
2022-08-29T03:19:14.339Z,99312.34
2022-08-29T03:21:45.485Z,99316.55
2022-08-29T03:24:13.659Z,99317.88
2022-08-29T03:26:45.105Z,99315.86
2022-08-29T03:29:22.597Z,99320.46
2022-08-29T03:31:50.887Z,99317.95
2022-08-29T03:34:18.806Z,99317.23
2022-08-29T03:36:47.234Z,99319.83
2022-08-29T03:39:18.420Z,99323.56
2022-08-29T03:41:54.231Z,99322.59
2022-08-29T03:44:23.473Z,99323.06
2022-08-29T03:46:55.050Z,99325.81
2022-08-29T03:49:22.934Z,99325.84
2022-08-29T03:51:52.311Z,99326.63
2022-08-29T03:54:23.676Z,99323.18
2022-08-29T03:56:52.630Z,99331.46
2022-08-29T03:59:20.650Z,99332.23
2022-08-29T04:01:51.631Z,99330.53
2022-08-29T04:04:39.478Z,99335.68
2022-08-29T04:07:09.032Z,99337.07
2022-08-29T04:09:37.302Z,99336.16
2022-08-29T04:12:05.218Z,99339.96
2022-08-29T04:14:35.496Z,99343.07
2022-08-29T04:17:06.384Z,99346.98
2022-08-29T04:19:37.408Z,99346.94
2022-08-29T04:22:07.018Z,99351.57
2022-08-29T04:24:43.244Z,99352.80
2022-08-29T04:27:14.259Z,99356.91
2022-08-29T04:29:48.501Z,99354.57
2022-08-29T04:32:17.927Z,99357.64
2022-08-29T04:34:45.878Z,99365.63
2022-08-29T04:37:16.773Z,99364.08
2022-08-29T04:39:44.686Z,99361.98
2022-08-29T04:42:17.060Z,99359.87
2022-08-29T04:44:50.738Z,99360.90
2022-08-29T04:47:21.838Z,99363.50
2022-08-29T04:49:56.393Z,99364.97
2022-08-29T04:52:26.794Z,99369.14
2022-08-29T04:54:55.657Z,99370.56
2022-08-29T04:57:24.977Z,99372.16
2022-08-29T04:59:59.947Z,99372.10
2022-08-29T05:02:28.549Z,99374.30
2022-08-29T05:04:56.999Z,99378.32
2022-08-29T05:07:26.882Z,99376.61
2022-08-29T05:10:20.127Z,99379.20
2022-08-29T05:12:48.332Z,99384.02
2022-08-29T05:15:16.683Z,99382.40
2022-08-29T05:17:48.029Z,99379.19
2022-08-29T05:20:18.869Z,99383.94
2022-08-29T05:22:53.015Z,99382.02
2022-08-29T05:25:27.072Z,99378.67
2022-08-29T05:27:55.046Z,99382.35
2022-08-29T05:30:34.532Z,99382.61
2022-08-29T05:33:03.801Z,99383.20
2022-08-29T05:35:33.010Z,99384.61
2022-08-29T05:38:09.079Z,99387.55
2022-08-29T05:40:40.441Z,99392.05
2022-08-29T05:43:14.635Z,99388.94
2022-08-29T05:45:43.113Z,99397.55
2022-08-29T05:48:11.122Z,99397.05
2022-08-29T05:50:41.987Z,99395.67
2022-08-29T05:53:35.990Z,99401.10
2022-08-29T05:56:10.019Z,99401.85
2022-08-29T05:58:38.198Z,99404.15
2022-08-29T06:01:07.015Z,99407.01
2022-08-29T06:03:41.089Z,99403.11
2022-08-29T06:06:12.221Z,99404.23
2022-08-29T06:08:40.635Z,99405.52
2022-08-29T06:11:34.946Z,99408.92
2022-08-29T06:14:08.944Z,99408.73
2022-08-29T06:16:37.307Z,99410.36
2022-08-29T06:19:07.323Z,99413.95
2022-08-29T06:21:35.400Z,99416.36
2022-08-29T06:24:04.076Z,99418.55
2022-08-29T06:26:31.944Z,99423.17
2022-08-29T06:29:00.249Z,99423.89
2022-08-29T06:31:29.585Z,99430.21
2022-08-29T06:34:22.741Z,99432.21
2022-08-29T06:36:54.179Z,99435.22
2022-08-29T06:39:27.869Z,99436.33
2022-08-29T06:42:25.714Z,99445.39
2022-08-29T06:44:57.980Z,99443.77
2022-08-29T06:47:26.732Z,99446.13
2022-08-29T06:50:01.539Z,99449.30
2022-08-29T06:52:33.960Z,99450.45
2022-08-29T06:55:24.128Z,99453.82
2022-08-29T06:57:58.289Z,99449.25
2022-08-29T07:00:51.959Z,99450.27
2022-08-29T07:03:26.164Z,99452.86
2022-08-29T07:05:55.640Z,99452.92
2022-08-29T07:08:42.240Z,99454.84
2022-08-29T07:11:28.431Z,99463.08
2022-08-29T07:14:33.080Z,99463.17
2022-08-29T07:17:19.048Z,99460.27
2022-08-29T07:20:00.101Z,99460.38
2022-08-29T07:22:35.061Z,99459.39
2022-08-29T07:25:10.570Z,99458.84
2022-08-29T07:27:38.744Z,99463.82
2022-08-29T07:30:09.474Z,99467.04
2022-08-29T07:32:56.365Z,99473.45
2022-08-29T07:35:30.524Z,99473.65
2022-08-29T07:38:01.386Z,99473.17
2022-08-29T07:40:30.241Z,99475.11
2022-08-29T07:43:05.979Z,99475.52
2022-08-29T07:45:34.270Z,99478.06
2022-08-29T07:48:02.132Z,99473.52
2022-08-29T07:50:32.338Z,99476.27
2022-08-29T07:53:01.741Z,99478.70
2022-08-29T07:55:29.612Z,99478.80
2022-08-29T07:57:57.930Z,99476.34
2022-08-29T08:00:29.143Z,99476.20
2022-08-29T08:03:01.119Z,99478.30
2022-08-29T08:05:29.113Z,99474.19
2022-08-29T08:08:04.725Z,99474.70
2022-08-29T08:10:39.344Z,99479.55
2022-08-29T08:13:07.270Z,99482.58
2022-08-29T08:16:03.655Z,99483.09
2022-08-29T08:18:31.741Z,99483.50
2022-08-29T08:21:06.237Z,99489.27
2022-08-29T08:23:38.896Z,99484.52
2022-08-29T08:26:07.549Z,99476.83
2022-08-29T08:28:40.735Z,99484.95
2022-08-29T08:31:11.381Z,99484.41
2022-08-29T08:34:07.811Z,99486.02
2022-08-29T08:36:44.905Z,99490.98
2022-08-29T08:39:15.690Z,99486.69
2022-08-29T08:42:00.953Z,99488.33
2022-08-29T08:45:03.356Z,99483.48
2022-08-29T08:47:43.049Z,99481.60
2022-08-29T08:50:40.881Z,99481.59
2022-08-29T08:53:39.761Z,99480.77
2022-08-29T08:56:14.096Z,99483.74
2022-08-29T08:58:57.041Z,99486.02
2022-08-29T09:01:33.787Z,99482.66
2022-08-29T09:04:44.237Z,99483.82
2022-08-29T09:07:24.137Z,99483.20
2022-08-29T09:10:36.954Z,99484.54
2022-08-29T09:13:48.094Z,99486.66
2022-08-29T09:16:26.801Z,99482.85
2022-08-29T09:19:01.008Z,99487.11
2022-08-29T09:21:40.939Z,99482.73
2022-08-29T09:24:46.791Z,99479.71
2022-08-29T09:27:29.726Z,99479.18
2022-08-29T09:30:26.804Z,99480.77
2022-08-29T09:33:03.464Z,99476.79
2022-08-29T09:35:52.920Z,99480.14
2022-08-29T09:38:28.219Z,99486.31
2022-08-29T09:41:30.775Z,99492.34
2022-08-29T09:43:58.970Z,99489.50
2022-08-29T09:46:32.343Z,99491.17
2022-08-29T09:49:20.389Z,99492.52
2022-08-29T09:52:09.984Z,99487.27
2022-08-29T09:55:24.107Z,99488.24
2022-08-29T09:58:05.013Z,99488.27
2022-08-29T10:00:41.627Z,99488.07
2022-08-29T10:03:21.231Z,99483.16
2022-08-29T10:06:06.426Z,99489.60
2022-08-29T10:08:36.145Z,99490.82
2022-08-29T10:11:21.272Z,99490.08
2022-08-29T10:14:12.519Z,99487.46
2022-08-29T10:16:51.800Z,99492.85
2022-08-29T10:19:45.027Z,99491.89
2022-08-29T10:22:50.773Z,99489.95
2022-08-29T10:25:35.681Z,99490.23
2022-08-29T10:28:28.742Z,99485.39
2022-08-29T10:31:06.345Z,99491.00
2022-08-29T10:34:02.973Z,99485.30
2022-08-29T10:37:21.260Z,99487.33
2022-08-29T10:40:20.692Z,99480.25
2022-08-29T10:42:56.419Z,99485.90
2022-08-29T10:45:36.828Z,99478.38
2022-08-29T10:48:22.061Z,99475.25
2022-08-29T10:51:25.475Z,99475.92
2022-08-29T10:54:28.444Z,99485.71
2022-08-29T10:56:56.333Z,99479.45
2022-08-29T10:59:31.242Z,99480.71
2022-08-29T11:02:12.499Z,99473.64
2022-08-29T11:04:54.732Z,99479.63
2022-08-29T11:07:44.102Z,99476.27
2022-08-29T11:10:21.109Z,99479.95
2022-08-29T11:13:00.516Z,99477.26
2022-08-29T11:15:39.306Z,99477.35
2022-08-29T11:18:29.894Z,99474.45
2022-08-29T11:21:10.601Z,99472.45
2022-08-29T11:24:04.387Z,99478.83
2022-08-29T11:26:40.216Z,99475.64
2022-08-29T11:29:46.215Z,99472.66
2022-08-29T11:32:51.407Z,99469.64
2022-08-29T11:35:26.190Z,99470.16
2022-08-29T11:38:43.886Z,99472.48
2022-08-29T11:41:32.972Z,99474.02
2022-08-29T11:44:25.236Z,99473.11
2022-08-29T11:46:57.224Z,99468.62
2022-08-29T11:49:39.107Z,99469.00
2022-08-29T11:52:25.399Z,99466.27
2022-08-29T11:55:23.114Z,99464.79
2022-08-29T11:58:04.250Z,99463.33
2022-08-29T12:00:42.767Z,99460.41
2022-08-29T12:03:38.973Z,99456.44
2022-08-29T12:06:54.596Z,99451.45
2022-08-29T12:09:43.605Z,99447.52
2022-08-29T12:12:15.230Z,99448.64
2022-08-29T12:14:53.246Z,99449.40
2022-08-29T12:18:00.957Z,99444.92
2022-08-29T12:20:46.618Z,99441.92
2022-08-29T12:23:31.247Z,99445.52
2022-08-29T12:26:22.856Z,99446.08
2022-08-29T12:29:02.013Z,99441.29
2022-08-29T12:32:22.932Z,99437.70
2022-08-29T12:35:18.139Z,99434.85
2022-08-29T12:38:10.838Z,99433.95
2022-08-29T12:41:09.982Z,99425.00
2022-08-29T12:43:45.552Z,99429.30
2022-08-29T12:46:40.445Z,99436.91
2022-08-29T12:49:30.747Z,99434.60
2022-08-29T12:52:05.936Z,99431.15
2022-08-29T12:54:42.101Z,99431.09
2022-08-29T12:57:22.446Z,99431.34
2022-08-29T12:59:54.027Z,99430.29
2022-08-29T13:02:31.539Z,99428.95
2022-08-29T13:05:28.897Z,99425.02
2022-08-29T13:08:11.017Z,99428.51
2022-08-29T13:10:57.234Z,99430.83
2022-08-29T13:13:50.478Z,99430.51
2022-08-29T13:16:39.215Z,99429.58
2022-08-29T13:19:20.035Z,99426.48
2022-08-29T13:21:48.282Z,99422.63
2022-08-29T13:24:41.237Z,99419.07
2022-08-29T13:27:11.041Z,99415.30
2022-08-29T13:29:45.003Z,99412.61
2022-08-29T13:32:26.616Z,99408.77
2022-08-29T13:35:33.472Z,99402.11
2022-08-29T13:38:33.037Z,99403.05
2022-08-29T13:41:02.249Z,99397.45
2022-08-29T13:43:53.057Z,99394.52
2022-08-29T13:46:30.452Z,99392.98
2022-08-29T13:49:04.942Z,99390.59
2022-08-29T13:51:38.622Z,99384.74
2022-08-29T13:54:12.331Z,99384.59
2022-08-29T13:57:07.854Z,99384.88
2022-08-29T13:59:42.597Z,99386.51
2022-08-29T14:02:17.613Z,99380.27
2022-08-29T14:04:51.457Z,99387.86
2022-08-29T14:07:31.803Z,99385.48
2022-08-29T14:10:01.391Z,99389.30
2022-08-29T14:12:33.356Z,99378.90
2022-08-29T14:15:08.969Z,99389.06
2022-08-29T14:17:42.003Z,99392.70
2022-08-29T14:20:10.799Z,99386.25
2022-08-29T14:22:39.071Z,99379.73
2022-08-29T14:25:32.362Z,99381.56
2022-08-29T14:28:06.470Z,99385.32
2022-08-29T14:31:00.169Z,99387.79
2022-08-29T14:33:32.995Z,99381.36
2022-08-29T14:36:25.667Z,99378.32
2022-08-29T14:39:02.157Z,99383.46
2022-08-29T14:41:30.051Z,99384.23
2022-08-29T14:43:59.227Z,99391.52
2022-08-29T14:46:32.559Z,99392.84
2022-08-29T14:49:01.577Z,99391.58
2022-08-29T14:51:30.372Z,99391.16
2022-08-29T14:53:58.828Z,99386.27
2022-08-29T14:59:12.651Z,99384.70
2022-08-29T15:01:42.424Z,99385.82
2022-08-29T15:04:16.521Z,99388.20
2022-08-29T15:06:45.143Z,99387.70
2022-08-29T15:09:16.222Z,99390.20
2022-08-29T15:11:44.684Z,99387.85
2022-08-29T15:14:12.628Z,99392.57
2022-08-29T15:16:40.659Z,99395.36
2022-08-29T15:22:25.737Z,99388.75
2022-08-29T15:24:55.415Z,99389.36
2022-08-29T15:27:49.424Z,99390.55
2022-08-29T15:30:19.046Z,99386.17
2022-08-29T15:32:49.165Z,99384.55
2022-08-29T15:35:21.173Z,99380.49
2022-08-29T15:37:54.485Z,99373.65
2022-08-29T15:40:27.534Z,99373.23
2022-08-29T15:42:55.546Z,99375.89
2022-08-29T15:45:23.482Z,99371.98
2022-08-29T15:47:54.028Z,99373.07
2022-08-29T15:50:29.016Z,99368.82
2022-08-29T15:52:56.958Z,99370.33
2022-08-29T15:55:28.446Z,99369.23
2022-08-29T15:57:57.102Z,99363.12
2022-08-29T16:00:30.280Z,99360.56
2022-08-29T16:03:03.497Z,99363.13
2022-08-29T16:05:33.493Z,99360.96
2022-08-29T16:08:06.229Z,99361.12
2022-08-29T16:10:35.072Z,99365.75
2022-08-29T16:13:03.919Z,99368.52
2022-08-29T16:15:35.779Z,99369.24
2022-08-29T16:18:09.424Z,99369.34
2022-08-29T16:20:41.633Z,99368.23
2022-08-29T16:23:12.896Z,99369.80
2022-08-29T16:26:06.248Z,99375.48
2022-08-29T16:28:35.136Z,99371.27
2022-08-29T16:31:09.314Z,99370.34
2022-08-29T16:33:43.243Z,99372.19
2022-08-29T16:36:11.400Z,99374.48
2022-08-29T16:38:40.053Z,99375.46
2022-08-29T16:41:13.832Z,99379.61
2022-08-29T16:43:51.977Z,99377.80
2022-08-29T16:46:31.056Z,99373.16
2022-08-29T16:49:24.881Z,99377.55
2022-08-29T16:51:53.361Z,99379.00
2022-08-29T16:54:24.931Z,99382.92
2022-08-29T16:56:57.206Z,99383.98
2022-08-29T16:59:25.299Z,99387.95
2022-08-29T17:01:56.798Z,99385.58
2022-08-29T17:04:31.278Z,99387.00
2022-08-29T17:06:59.211Z,99389.25
2022-08-29T17:09:33.089Z,99396.16
2022-08-29T17:12:07.744Z,99398.94
2022-08-29T17:14:43.466Z,99401.45
2022-08-29T17:17:14.527Z,99401.77
2022-08-29T17:19:44.752Z,99401.92
2022-08-29T17:22:18.133Z,99404.42
2022-08-29T17:24:48.893Z,99408.22
2022-08-29T17:27:21.756Z,99407.64
2022-08-29T17:29:50.485Z,99411.54
2022-08-29T17:32:23.857Z,99405.18
2022-08-29T17:34:52.006Z,99407.73
2022-08-29T17:37:19.920Z,99406.89
2022-08-29T17:39:48.965Z,99407.08
2022-08-29T17:42:17.689Z,99403.45
2022-08-29T17:44:47.886Z,99407.77
2022-08-29T17:47:17.431Z,99411.17
2022-08-29T17:49:45.832Z,99409.63
2022-08-29T17:52:14.023Z,99412.95
2022-08-29T17:54:48.012Z,99414.03
2022-08-29T17:57:16.230Z,99421.08
2022-08-29T17:59:44.351Z,99417.42
2022-08-29T18:02:15.578Z,99422.60
2022-08-29T18:04:43.662Z,99424.90
2022-08-29T18:07:11.571Z,99425.98
2022-08-29T18:10:07.147Z,99423.15
2022-08-29T18:12:35.248Z,99421.29
2022-08-29T18:15:09.316Z,99420.55
2022-08-29T18:17:38.583Z,99426.30
2022-08-29T18:20:09.786Z,99426.03
2022-08-29T18:22:42.826Z,99429.55
2022-08-29T18:25:11.745Z,99434.77
2022-08-29T18:27:43.605Z,99435.88
2022-08-29T18:30:15.125Z,99440.07
2022-08-29T18:32:43.018Z,99440.45
2022-08-29T18:35:11.231Z,99439.89
2022-08-29T18:37:45.201Z,99444.19
2022-08-29T18:40:15.167Z,99446.11
2022-08-29T18:42:43.115Z,99446.13
2022-08-29T18:45:13.422Z,99450.02
2022-08-29T18:47:41.729Z,99448.54
2022-08-29T18:50:29.477Z,99454.00
2022-08-29T18:53:24.344Z,99456.42
2022-08-29T18:55:54.821Z,99457.11
2022-08-29T18:58:26.474Z,99462.31
2022-08-29T19:00:57.872Z,99467.25
2022-08-29T19:03:27.648Z,99469.38
2022-08-29T19:05:56.497Z,99474.89
2022-08-29T19:08:24.909Z,99482.26
2022-08-29T19:10:55.545Z,99485.60
2022-08-29T19:13:25.341Z,99480.52
2022-08-29T19:15:57.744Z,99487.71
2022-08-29T19:18:27.577Z,99496.58
2022-08-29T19:21:07.878Z,99498.39
2022-08-29T19:23:46.099Z,99500.70
2022-08-29T19:26:31.872Z,99499.67
2022-08-29T19:29:12.719Z,99502.67
2022-08-29T19:31:44.947Z,99501.11
2022-08-29T19:34:13.618Z,99499.59
2022-08-29T19:36:46.900Z,99500.62
2022-08-29T19:39:18.299Z,99504.45
2022-08-29T19:41:46.530Z,99507.99
2022-08-29T19:44:17.187Z,99506.95
2022-08-29T19:46:50.814Z,99509.49
2022-08-29T19:49:18.981Z,99514.09
2022-08-29T19:51:47.513Z,99509.15
2022-08-29T19:54:20.885Z,99510.30
2022-08-29T19:56:55.373Z,99510.09
2022-08-29T19:59:29.455Z,99513.02
2022-08-29T20:01:58.824Z,99513.15
2022-08-29T20:04:36.535Z,99510.21
2022-08-29T20:07:10.449Z,99510.96
2022-08-29T20:10:04.456Z,99512.36
2022-08-29T20:12:37.584Z,99511.61
2022-08-29T20:15:10.184Z,99515.15
2022-08-29T20:17:43.474Z,99519.17
2022-08-29T20:20:21.070Z,99522.11
2022-08-29T20:22:49.385Z,99523.63
2022-08-29T20:25:24.770Z,99524.10
2022-08-29T20:27:53.424Z,99527.12
2022-08-29T20:30:29.964Z,99529.03
2022-08-29T20:32:58.251Z,99531.27
2022-08-29T20:35:50.407Z,99527.98
2022-08-29T20:38:18.710Z,99525.45
2022-08-29T20:40:47.148Z,99530.36
2022-08-29T20:43:17.151Z,99531.25
2022-08-29T20:45:45.502Z,99532.11
2022-08-29T20:48:13.511Z,99531.20
2022-08-29T20:50:42.622Z,99534.94
2022-08-29T20:53:14.933Z,99535.33
2022-08-29T20:56:04.383Z,99533.65
2022-08-29T20:58:34.721Z,99535.48
2022-08-29T21:01:27.750Z,99537.94
2022-08-29T21:04:14.817Z,99542.84
2022-08-29T21:06:53.925Z,99541.98
2022-08-29T21:09:25.716Z,99546.44
2022-08-29T21:11:55.753Z,99545.93
2022-08-29T21:14:24.535Z,99550.20
2022-08-29T21:16:57.521Z,99547.18
2022-08-29T21:19:31.689Z,99546.98
2022-08-29T21:22:02.749Z,99549.67
2022-08-29T21:24:31.020Z,99546.83
2022-08-29T21:26:59.446Z,99548.04
2022-08-29T21:29:30.407Z,99546.41
2022-08-29T21:31:58.852Z,99549.73
2022-08-29T21:34:27.225Z,99549.34
2022-08-29T21:36:55.603Z,99550.02
2022-08-29T21:39:28.581Z,99551.85
2022-08-29T21:42:02.678Z,99548.55
2022-08-29T21:44:31.298Z,99547.33
2022-08-29T21:47:04.135Z,99549.09
2022-08-29T21:49:34.971Z,99548.04
2022-08-29T21:52:08.308Z,99552.80
2022-08-29T21:54:41.369Z,99550.72
2022-08-29T21:57:18.890Z,99548.53
2022-08-29T21:59:47.503Z,99542.08
2022-08-29T22:02:18.573Z,99543.91
2022-08-29T22:04:46.362Z,99546.04
2022-08-29T22:07:16.301Z,99543.48
2022-08-29T22:09:45.193Z,99542.73
2022-08-29T22:12:13.393Z,99543.03
2022-08-29T22:15:00.367Z,99542.41
2022-08-29T22:17:31.759Z,99540.92
2022-08-29T22:20:03.842Z,99540.10
2022-08-29T22:22:31.698Z,99541.11
2022-08-29T22:25:00.510Z,99544.55
2022-08-29T22:27:28.416Z,99546.91
2022-08-29T22:29:58.489Z,99546.95
2022-08-29T22:32:35.750Z,99544.15
2022-08-29T22:35:07.091Z,99545.75
2022-08-29T22:37:37.001Z,99544.14
2022-08-29T22:40:15.311Z,99542.09
2022-08-29T22:42:49.082Z,99542.21
2022-08-29T22:45:18.418Z,99542.60
2022-08-29T22:47:47.219Z,99536.17
2022-08-29T22:50:21.325Z,99538.27
2022-08-29T22:52:50.791Z,99539.08
2022-08-29T22:57:54.685Z,99545.50
2022-08-29T23:00:26.599Z,99554.05
2022-08-29T23:02:54.752Z,99550.73
2022-08-29T23:05:24.369Z,99550.46
2022-08-29T23:07:52.686Z,99548.64
2022-08-29T23:10:23.568Z,99548.94
2022-08-29T23:12:51.366Z,99554.58
2022-08-29T23:15:22.140Z,99554.77
2022-08-29T23:17:53.027Z,99552.09
2022-08-29T23:20:23.885Z,99550.22
2022-08-29T23:22:57.465Z,99552.89
2022-08-29T23:25:25.903Z,99549.85
2022-08-29T23:27:53.842Z,99546.80
2022-08-29T23:30:26.600Z,99547.94
2022-08-29T23:32:55.008Z,99549.98
2022-08-29T23:35:26.018Z,99550.05
2022-08-29T23:37:55.031Z,99540.56
2022-08-29T23:40:23.017Z,99536.16
2022-08-29T23:42:51.818Z,99535.36
2022-08-29T23:45:20.370Z,99529.15
2022-08-29T23:47:49.463Z,99535.50
2022-08-29T23:50:20.563Z,99535.83
2022-08-29T23:52:48.489Z,99537.05
2022-08-29T23:55:18.827Z,99541.08
2022-08-29T23:57:47.994Z,99538.20
